sensor_id;sensor_type;location;lat;lon;timestamp;P1;durP1;ratioP1;P2;durP2;ratioP2
47617;SDS011;33336;36.728;-4.414;2023-09-19T00:03:50;9.60;;;2.78;;
47617;SDS011;33336;36.728;-4.414;2023-09-19T00:08:54;5.60;;;2.33;;
47617;SDS011;33336;36.728;-4.414;2023-09-19T00:13:58;8.50;;;2.83;;
47617;SDS011;33336;36.728;-4.414;2023-09-19T00:19:01;6.30;;;3.42;;
47617;SDS011;33336;36.728;-4.414;2023-09-19T00:24:05;4.75;;;2.00;;
47617;SDS011;33336;36.728;-4.414;2023-09-19T00:29:11;9.40;;;2.92;;
47617;SDS011;33336;36.728;-4.414;2023-09-19T00:34:17;4.20;;;1.83;;
47617;SDS011;33336;36.728;-4.414;2023-09-19T00:39:21;7.82;;;2.35;;
47617;SDS011;33336;36.728;-4.414;2023-09-19T00:44:27;6.25;;;2.47;;
47617;SDS011;33336;36.728;-4.414;2023-09-19T00:49:30;4.22;;;2.25;;
47617;SDS011;33336;36.728;-4.414;2023-09-19T00:54:34;5.53;;;2.60;;
47617;SDS011;33336;36.728;-4.414;2023-09-19T00:59:38;3.38;;;2.28;;
47617;SDS011;33336;36.728;-4.414;2023-09-19T01:04:42;6.80;;;2.90;;
47617;SDS011;33336;36.728;-4.414;2023-09-19T01:09:46;4.68;;;2.20;;
47617;SDS011;33336;36.728;-4.414;2023-09-19T01:14:52;6.20;;;2.17;;
47617;SDS011;33336;36.728;-4.414;2023-09-19T01:20:14;4.45;;;2.17;;
47617;SDS011;33336;36.728;-4.414;2023-09-19T01:31:10;6.38;;;2.75;;
47617;SDS011;33336;36.728;-4.414;2023-09-19T01:36:14;8.32;;;2.25;;
47617;SDS011;33336;36.728;-4.414;2023-09-19T01:41:17;5.18;;;2.55;;
47617;SDS011;33336;36.728;-4.414;2023-09-19T01:46:30;6.55;;;3.17;;
47617;SDS011;33336;36.728;-4.414;2023-09-19T01:51:40;5.20;;;2.28;;
47617;SDS011;33336;36.728;-4.414;2023-09-19T01:56:51;7.40;;;2.55;;
47617;SDS011;33336;36.728;-4.414;2023-09-19T02:02:01;6.43;;;2.63;;
47617;SDS011;33336;36.728;-4.414;2023-09-19T02:07:07;10.73;;;6.03;;
47617;SDS011;33336;36.728;-4.414;2023-09-19T02:12:10;7.07;;;3.45;;
47617;SDS011;33336;36.728;-4.414;2023-09-19T02:17:15;5.50;;;1.73;;
47617;SDS011;33336;36.728;-4.414;2023-09-19T02:22:18;6.57;;;3.75;;
47617;SDS011;33336;36.728;-4.414;2023-09-19T02:27:22;8.07;;;2.85;;
47617;SDS011;33336;36.728;-4.414;2023-09-19T02:32:26;5.47;;;1.98;;
47617;SDS011;33336;36.728;-4.414;2023-09-19T02:37:30;8.27;;;2.83;;
47617;SDS011;33336;36.728;-4.414;2023-09-19T02:42:34;6.82;;;2.58;;
47617;SDS011;33336;36.728;-4.414;2023-09-19T02:47:38;4.07;;;2.45;;
47617;SDS011;33336;36.728;-4.414;2023-09-19T02:52:42;6.55;;;2.70;;
47617;SDS011;33336;36.728;-4.414;2023-09-19T02:57:46;4.13;;;2.22;;
47617;SDS011;33336;36.728;-4.414;2023-09-19T03:02:51;5.55;;;3.10;;
47617;SDS011;33336;36.728;-4.414;2023-09-19T03:07:56;9.73;;;5.22;;
47617;SDS011;33336;36.728;-4.414;2023-09-19T03:13:01;9.32;;;3.60;;
47617;SDS011;33336;36.728;-4.414;2023-09-19T03:18:05;17.33;;;7.60;;
47617;SDS011;33336;36.728;-4.414;2023-09-19T03:23:08;5.60;;;2.88;;
47617;SDS011;33336;36.728;-4.414;2023-09-19T03:28:12;4.57;;;2.20;;
47617;SDS011;33336;36.728;-4.414;2023-09-19T03:33:17;5.28;;;2.30;;
47617;SDS011;33336;36.728;-4.414;2023-09-19T03:38:21;4.95;;;2.60;;
47617;SDS011;33336;36.728;-4.414;2023-09-19T03:43:24;6.75;;;2.67;;
47617;SDS011;33336;36.728;-4.414;2023-09-19T03:48:28;7.07;;;2.80;;
47617;SDS011;33336;36.728;-4.414;2023-09-19T03:53:31;7.55;;;2.60;;
47617;SDS011;33336;36.728;-4.414;2023-09-19T03:58:35;4.28;;;1.90;;
47617;SDS011;33336;36.728;-4.414;2023-09-19T04:03:41;4.70;;;2.88;;
47617;SDS011;33336;36.728;-4.414;2023-09-19T04:08:53;6.60;;;2.95;;
47617;SDS011;33336;36.728;-4.414;2023-09-19T04:13:58;4.18;;;2.30;;
47617;SDS011;33336;36.728;-4.414;2023-09-19T04:19:02;6.13;;;2.33;;
47617;SDS011;33336;36.728;-4.414;2023-09-19T04:24:06;6.85;;;2.50;;
47617;SDS011;33336;36.728;-4.414;2023-09-19T04:29:10;4.43;;;1.92;;
47617;SDS011;33336;36.728;-4.414;2023-09-19T04:34:16;5.82;;;2.20;;
47617;SDS011;33336;36.728;-4.414;2023-09-19T04:39:20;5.28;;;1.58;;
47617;SDS011;33336;36.728;-4.414;2023-09-19T04:44:27;6.80;;;2.13;;
47617;SDS011;33336;36.728;-4.414;2023-09-19T04:49:31;3.60;;;2.00;;
47617;SDS011;33336;36.728;-4.414;2023-09-19T04:54:36;6.78;;;2.10;;
47617;SDS011;33336;36.728;-4.414;2023-09-19T04:59:40;7.53;;;1.98;;
47617;SDS011;33336;36.728;-4.414;2023-09-19T05:04:44;5.53;;;2.35;;
47617;SDS011;33336;36.728;-4.414;2023-09-19T05:09:48;7.38;;;2.22;;
47617;SDS011;33336;36.728;-4.414;2023-09-19T05:14:51;6.97;;;1.80;;
47617;SDS011;33336;36.728;-4.414;2023-09-19T05:19:55;5.78;;;2.28;;
47617;SDS011;33336;36.728;-4.414;2023-09-19T05:24:59;6.45;;;2.30;;
47617;SDS011;33336;36.728;-4.414;2023-09-19T05:30:05;4.83;;;2.40;;
47617;SDS011;33336;36.728;-4.414;2023-09-19T05:35:10;5.18;;;2.88;;
47617;SDS011;33336;36.728;-4.414;2023-09-19T05:40:13;8.27;;;2.80;;
47617;SDS011;33336;36.728;-4.414;2023-09-19T05:45:17;5.32;;;2.35;;
47617;SDS011;33336;36.728;-4.414;2023-09-19T05:50:24;4.75;;;2.45;;
47617;SDS011;33336;36.728;-4.414;2023-09-19T05:55:27;4.72;;;2.25;;
47617;SDS011;33336;36.728;-4.414;2023-09-19T06:00:30;7.53;;;2.50;;
47617;SDS011;33336;36.728;-4.414;2023-09-19T06:05:35;10.30;;;2.80;;
47617;SDS011;33336;36.728;-4.414;2023-09-19T06:10:42;11.45;;;3.08;;
47617;SDS011;33336;36.728;-4.414;2023-09-19T06:15:45;5.70;;;2.55;;
47617;SDS011;33336;36.728;-4.414;2023-09-19T06:20:50;4.85;;;2.30;;
47617;SDS011;33336;36.728;-4.414;2023-09-19T06:25:53;6.80;;;2.80;;
47617;SDS011;33336;36.728;-4.414;2023-09-19T06:30:56;4.65;;;2.20;;
47617;SDS011;33336;36.728;-4.414;2023-09-19T06:36:01;5.95;;;1.88;;
47617;SDS011;33336;36.728;-4.414;2023-09-19T06:41:05;3.22;;;2.10;;
47617;SDS011;33336;36.728;-4.414;2023-09-19T06:46:10;9.82;;;2.95;;
47617;SDS011;33336;36.728;-4.414;2023-09-19T06:51:14;7.57;;;2.83;;
47617;SDS011;33336;36.728;-4.414;2023-09-19T06:56:18;10.23;;;2.72;;
47617;SDS011;33336;36.728;-4.414;2023-09-19T07:01:25;8.73;;;2.80;;
47617;SDS011;33336;36.728;-4.414;2023-09-19T07:06:30;13.32;;;3.15;;
47617;SDS011;33336;36.728;-4.414;2023-09-19T07:11:34;9.15;;;2.78;;
47617;SDS011;33336;36.728;-4.414;2023-09-19T07:16:38;7.32;;;2.58;;
47617;SDS011;33336;36.728;-4.414;2023-09-19T07:21:44;5.47;;;1.88;;
47617;SDS011;33336;36.728;-4.414;2023-09-19T07:26:48;5.78;;;2.40;;
47617;SDS011;33336;36.728;-4.414;2023-09-19T07:31:51;7.30;;;2.28;;
47617;SDS011;33336;36.728;-4.414;2023-09-19T07:36:55;8.52;;;2.28;;
47617;SDS011;33336;36.728;-4.414;2023-09-19T07:41:58;7.30;;;2.78;;
47617;SDS011;33336;36.728;-4.414;2023-09-19T07:47:02;10.95;;;3.40;;
47617;SDS011;33336;36.728;-4.414;2023-09-19T07:52:06;11.07;;;3.75;;
47617;SDS011;33336;36.728;-4.414;2023-09-19T07:57:10;10.85;;;3.42;;
47617;SDS011;33336;36.728;-4.414;2023-09-19T08:02:13;6.30;;;3.08;;
47617;SDS011;33336;36.728;-4.414;2023-09-19T08:07:19;7.95;;;2.90;;
47617;SDS011;33336;36.728;-4.414;2023-09-19T08:12:23;6.00;;;2.33;;
47617;SDS011;33336;36.728;-4.414;2023-09-19T08:17:27;10.93;;;3.60;;
47617;SDS011;33336;36.728;-4.414;2023-09-19T08:22:31;12.05;;;3.85;;
47617;SDS011;33336;36.728;-4.414;2023-09-19T08:27:35;8.98;;;2.80;;
47617;SDS011;33336;36.728;-4.414;2023-09-19T08:32:38;12.82;;;3.45;;
47617;SDS011;33336;36.728;-4.414;2023-09-19T08:37:44;8.45;;;2.55;;
47617;SDS011;33336;36.728;-4.414;2023-09-19T08:42:48;7.65;;;2.85;;
47617;SDS011;33336;36.728;-4.414;2023-09-19T08:47:53;6.53;;;2.50;;
47617;SDS011;33336;36.728;-4.414;2023-09-19T08:53:19;11.75;;;3.58;;
47617;SDS011;33336;36.728;-4.414;2023-09-19T08:58:31;10.32;;;2.40;;
47617;SDS011;33336;36.728;-4.414;2023-09-19T09:03:42;7.07;;;2.60;;
47617;SDS011;33336;36.728;-4.414;2023-09-19T09:08:48;5.32;;;1.98;;
47617;SDS011;33336;36.728;-4.414;2023-09-19T09:13:52;14.55;;;2.60;;
47617;SDS011;33336;36.728;-4.414;2023-09-19T09:18:55;10.02;;;2.67;;
47617;SDS011;33336;36.728;-4.414;2023-09-19T09:24:00;8.32;;;2.70;;
47617;SDS011;33336;36.728;-4.414;2023-09-19T09:29:41;8.75;;;2.70;;
47617;SDS011;33336;36.728;-4.414;2023-09-19T09:34:45;11.05;;;2.95;;
47617;SDS011;33336;36.728;-4.414;2023-09-19T09:39:52;10.88;;;3.83;;
47617;SDS011;33336;36.728;-4.414;2023-09-19T09:45:14;9.77;;;3.20;;
47617;SDS011;33336;36.728;-4.414;2023-09-19T09:50:25;12.52;;;3.30;;
47617;SDS011;33336;36.728;-4.414;2023-09-19T09:55:32;7.70;;;2.15;;
47617;SDS011;33336;36.728;-4.414;2023-09-19T10:01:06;6.03;;;2.28;;
47617;SDS011;33336;36.728;-4.414;2023-09-19T10:06:16;5.93;;;2.28;;
47617;SDS011;33336;36.728;-4.414;2023-09-19T10:11:30;11.07;;;2.50;;
47617;SDS011;33336;36.728;-4.414;2023-09-19T10:16:33;7.97;;;2.30;;
47617;SDS011;33336;36.728;-4.414;2023-09-19T10:21:38;8.93;;;2.20;;
47617;SDS011;33336;36.728;-4.414;2023-09-19T10:26:46;9.07;;;2.28;;
47617;SDS011;33336;36.728;-4.414;2023-09-19T10:31:52;9.15;;;2.08;;
47617;SDS011;33336;36.728;-4.414;2023-09-19T10:36:56;9.50;;;2.65;;
47617;SDS011;33336;36.728;-4.414;2023-09-19T10:42:01;13.68;;;2.60;;
47617;SDS011;33336;36.728;-4.414;2023-09-19T10:47:06;11.68;;;2.92;;
47617;SDS011;33336;36.728;-4.414;2023-09-19T10:52:09;7.63;;;2.85;;
47617;SDS011;33336;36.728;-4.414;2023-09-19T10:57:20;12.53;;;1.80;;
47617;SDS011;33336;36.728;-4.414;2023-09-19T11:02:24;7.68;;;1.75;;
47617;SDS011;33336;36.728;-4.414;2023-09-19T11:07:28;6.40;;;2.00;;
47617;SDS011;33336;36.728;-4.414;2023-09-19T11:12:51;11.02;;;2.60;;
47617;SDS011;33336;36.728;-4.414;2023-09-19T11:17:59;6.80;;;1.93;;
47617;SDS011;33336;36.728;-4.414;2023-09-19T11:23:17;9.32;;;2.47;;
47617;SDS011;33336;36.728;-4.414;2023-09-19T11:28:30;5.43;;;1.73;;
47617;SDS011;33336;36.728;-4.414;2023-09-19T11:33:34;10.60;;;2.67;;
47617;SDS011;33336;36.728;-4.414;2023-09-19T11:38:59;13.65;;;3.65;;
47617;SDS011;33336;36.728;-4.414;2023-09-19T11:49:41;10.80;;;2.47;;
47617;SDS011;33336;36.728;-4.414;2023-09-19T11:54:46;9.82;;;1.88;;
47617;SDS011;33336;36.728;-4.414;2023-09-19T11:59:53;6.97;;;2.17;;
47617;SDS011;33336;36.728;-4.414;2023-09-19T12:04:59;8.45;;;2.58;;
47617;SDS011;33336;36.728;-4.414;2023-09-19T12:10:03;6.03;;;2.35;;
47617;SDS011;33336;36.728;-4.414;2023-09-19T12:15:09;5.97;;;1.80;;
47617;SDS011;33336;36.728;-4.414;2023-09-19T12:20:13;6.80;;;2.03;;
47617;SDS011;33336;36.728;-4.414;2023-09-19T12:25:18;7.10;;;2.42;;
47617;SDS011;33336;36.728;-4.414;2023-09-19T12:30:28;6.40;;;1.77;;
47617;SDS011;33336;36.728;-4.414;2023-09-19T12:35:34;5.65;;;2.15;;
47617;SDS011;33336;36.728;-4.414;2023-09-19T12:40:37;6.43;;;1.73;;
47617;SDS011;33336;36.728;-4.414;2023-09-19T12:45:45;6.72;;;1.92;;
47617;SDS011;33336;36.728;-4.414;2023-09-19T12:51:04;10.85;;;2.35;;
47617;SDS011;33336;36.728;-4.414;2023-09-19T12:56:08;4.30;;;1.67;;
47617;SDS011;33336;36.728;-4.414;2023-09-19T13:01:15;4.05;;;1.90;;
47617;SDS011;33336;36.728;-4.414;2023-09-19T13:11:39;5.72;;;1.88;;
47617;SDS011;33336;36.728;-4.414;2023-09-19T13:16:55;5.85;;;1.70;;
47617;SDS011;33336;36.728;-4.414;2023-09-19T13:21:59;5.18;;;1.90;;
47617;SDS011;33336;36.728;-4.414;2023-09-19T13:27:03;6.50;;;1.85;;
47617;SDS011;33336;36.728;-4.414;2023-09-19T13:32:08;4.90;;;1.50;;
47617;SDS011;33336;36.728;-4.414;2023-09-19T13:37:13;7.10;;;1.63;;
47617;SDS011;33336;36.728;-4.414;2023-09-19T13:42:18;5.20;;;2.47;;
47617;SDS011;33336;36.728;-4.414;2023-09-19T13:47:24;5.88;;;1.63;;
47617;SDS011;33336;36.728;-4.414;2023-09-19T13:52:28;2.78;;;1.15;;
47617;SDS011;33336;36.728;-4.414;2023-09-19T13:57:32;6.68;;;2.30;;
47617;SDS011;33336;36.728;-4.414;2023-09-19T14:02:36;4.97;;;1.92;;
47617;SDS011;33336;36.728;-4.414;2023-09-19T14:07:39;5.57;;;1.60;;
47617;SDS011;33336;36.728;-4.414;2023-09-19T14:12:44;5.57;;;2.03;;
47617;SDS011;33336;36.728;-4.414;2023-09-19T14:17:48;2.78;;;1.50;;
47617;SDS011;33336;36.728;-4.414;2023-09-19T14:22:52;4.60;;;1.35;;
47617;SDS011;33336;36.728;-4.414;2023-09-19T14:27:55;3.85;;;1.40;;
47617;SDS011;33336;36.728;-4.414;2023-09-19T14:32:59;4.45;;;1.52;;
47617;SDS011;33336;36.728;-4.414;2023-09-19T14:38:03;4.82;;;1.42;;
47617;SDS011;33336;36.728;-4.414;2023-09-19T14:43:06;8.65;;;1.50;;
47617;SDS011;33336;36.728;-4.414;2023-09-19T14:48:11;3.50;;;1.45;;
47617;SDS011;33336;36.728;-4.414;2023-09-19T14:53:14;4.45;;;1.90;;
47617;SDS011;33336;36.728;-4.414;2023-09-19T14:58:18;3.55;;;2.03;;
47617;SDS011;33336;36.728;-4.414;2023-09-19T15:08:28;4.75;;;1.35;;
47617;SDS011;33336;36.728;-4.414;2023-09-19T15:13:35;2.53;;;1.20;;
47617;SDS011;33336;36.728;-4.414;2023-09-19T15:18:40;4.95;;;1.40;;
47617;SDS011;33336;36.728;-4.414;2023-09-19T15:23:44;3.42;;;1.10;;
47617;SDS011;33336;36.728;-4.414;2023-09-19T15:28:48;3.75;;;1.83;;
47617;SDS011;33336;36.728;-4.414;2023-09-19T15:33:52;4.32;;;1.33;;
47617;SDS011;33336;36.728;-4.414;2023-09-19T15:38:59;3.55;;;1.30;;
47617;SDS011;33336;36.728;-4.414;2023-09-19T15:44:04;2.85;;;1.45;;
47617;SDS011;33336;36.728;-4.414;2023-09-19T15:49:15;5.15;;;1.63;;
47617;SDS011;33336;36.728;-4.414;2023-09-19T15:54:18;2.42;;;1.20;;
47617;SDS011;33336;36.728;-4.414;2023-09-19T15:59:25;8.30;;;1.75;;
47617;SDS011;33336;36.728;-4.414;2023-09-19T16:04:29;5.88;;;1.55;;
47617;SDS011;33336;36.728;-4.414;2023-09-19T16:09:33;4.45;;;1.85;;
47617;SDS011;33336;36.728;-4.414;2023-09-19T16:14:36;4.78;;;1.30;;
47617;SDS011;33336;36.728;-4.414;2023-09-19T16:19:41;4.10;;;1.67;;
47617;SDS011;33336;36.728;-4.414;2023-09-19T16:24:44;4.63;;;1.30;;
47617;SDS011;33336;36.728;-4.414;2023-09-19T16:29:47;3.25;;;0.98;;
47617;SDS011;33336;36.728;-4.414;2023-09-19T16:34:52;8.57;;;1.50;;
47617;SDS011;33336;36.728;-4.414;2023-09-19T16:39:55;3.28;;;1.42;;
47617;SDS011;33336;36.728;-4.414;2023-09-19T16:44:58;4.47;;;1.50;;
47617;SDS011;33336;36.728;-4.414;2023-09-19T16:50:02;6.65;;;1.35;;
47617;SDS011;33336;36.728;-4.414;2023-09-19T16:55:06;5.77;;;1.50;;
47617;SDS011;33336;36.728;-4.414;2023-09-19T17:00:10;4.40;;;1.40;;
47617;SDS011;33336;36.728;-4.414;2023-09-19T17:05:16;2.37;;;1.10;;
47617;SDS011;33336;36.728;-4.414;2023-09-19T17:10:20;3.63;;;1.13;;
47617;SDS011;33336;36.728;-4.414;2023-09-19T17:15:23;3.97;;;1.50;;
47617;SDS011;33336;36.728;-4.414;2023-09-19T17:20:28;4.80;;;1.60;;
47617;SDS011;33336;36.728;-4.414;2023-09-19T17:25:31;3.70;;;1.60;;
47617;SDS011;33336;36.728;-4.414;2023-09-19T17:30:36;4.68;;;1.55;;
47617;SDS011;33336;36.728;-4.414;2023-09-19T17:35:41;3.40;;;1.45;;
47617;SDS011;33336;36.728;-4.414;2023-09-19T17:40:45;5.22;;;1.77;;
47617;SDS011;33336;36.728;-4.414;2023-09-19T17:45:50;4.40;;;1.30;;
47617;SDS011;33336;36.728;-4.414;2023-09-19T17:51:00;7.20;;;2.33;;
47617;SDS011;33336;36.728;-4.414;2023-09-19T17:56:03;5.03;;;1.30;;
47617;SDS011;33336;36.728;-4.414;2023-09-19T18:06:15;5.15;;;1.60;;
47617;SDS011;33336;36.728;-4.414;2023-09-19T18:11:20;2.72;;;1.27;;
47617;SDS011;33336;36.728;-4.414;2023-09-19T18:21:33;5.70;;;1.55;;
47617;SDS011;33336;36.728;-4.414;2023-09-19T18:26:38;6.28;;;2.42;;
47617;SDS011;33336;36.728;-4.414;2023-09-19T18:31:42;6.82;;;2.10;;
47617;SDS011;33336;36.728;-4.414;2023-09-19T18:36:47;10.15;;;1.88;;
47617;SDS011;33336;36.728;-4.414;2023-09-19T18:41:51;5.65;;;2.13;;
47617;SDS011;33336;36.728;-4.414;2023-09-19T18:46:54;5.00;;;1.50;;
47617;SDS011;33336;36.728;-4.414;2023-09-19T18:51:59;5.38;;;2.42;;
47617;SDS011;33336;36.728;-4.414;2023-09-19T18:57:06;5.10;;;1.33;;
47617;SDS011;33336;36.728;-4.414;2023-09-19T19:02:12;7.63;;;2.70;;
47617;SDS011;33336;36.728;-4.414;2023-09-19T19:07:17;9.15;;;2.60;;
47617;SDS011;33336;36.728;-4.414;2023-09-19T19:12:23;6.45;;;1.75;;
47617;SDS011;33336;36.728;-4.414;2023-09-19T19:17:26;3.65;;;1.25;;
47617;SDS011;33336;36.728;-4.414;2023-09-19T19:22:34;3.00;;;1.33;;
47617;SDS011;33336;36.728;-4.414;2023-09-19T19:27:39;5.03;;;1.70;;
47617;SDS011;33336;36.728;-4.414;2023-09-19T19:32:44;5.15;;;1.88;;
47617;SDS011;33336;36.728;-4.414;2023-09-19T19:37:51;4.47;;;1.98;;
47617;SDS011;33336;36.728;-4.414;2023-09-19T19:42:56;7.13;;;1.90;;
47617;SDS011;33336;36.728;-4.414;2023-09-19T19:48:00;4.55;;;2.03;;
47617;SDS011;33336;36.728;-4.414;2023-09-19T19:53:06;7.80;;;2.33;;
47617;SDS011;33336;36.728;-4.414;2023-09-19T19:58:10;11.07;;;3.47;;
47617;SDS011;33336;36.728;-4.414;2023-09-19T20:03:17;9.90;;;3.50;;
47617;SDS011;33336;36.728;-4.414;2023-09-19T20:08:22;9.82;;;3.53;;
47617;SDS011;33336;36.728;-4.414;2023-09-19T20:13:29;23.90;;;3.00;;
47617;SDS011;33336;36.728;-4.414;2023-09-19T20:18:32;6.75;;;3.63;;
47617;SDS011;33336;36.728;-4.414;2023-09-19T20:23:38;8.73;;;2.47;;
47617;SDS011;33336;36.728;-4.414;2023-09-19T20:28:42;8.40;;;2.92;;
47617;SDS011;33336;36.728;-4.414;2023-09-19T20:33:47;6.55;;;3.38;;
47617;SDS011;33336;36.728;-4.414;2023-09-19T20:38:53;6.80;;;2.63;;
47617;SDS011;33336;36.728;-4.414;2023-09-19T20:43:58;7.00;;;3.08;;
47617;SDS011;33336;36.728;-4.414;2023-09-19T20:49:01;8.75;;;2.70;;
47617;SDS011;33336;36.728;-4.414;2023-09-19T20:54:07;9.00;;;2.88;;
47617;SDS011;33336;36.728;-4.414;2023-09-19T20:59:10;7.65;;;3.55;;
47617;SDS011;33336;36.728;-4.414;2023-09-19T21:04:14;6.85;;;2.83;;
47617;SDS011;33336;36.728;-4.414;2023-09-19T21:09:18;8.05;;;3.70;;
47617;SDS011;33336;36.728;-4.414;2023-09-19T21:14:22;6.70;;;2.70;;
47617;SDS011;33336;36.728;-4.414;2023-09-19T21:19:25;11.10;;;3.30;;
47617;SDS011;33336;36.728;-4.414;2023-09-19T21:24:30;7.43;;;3.95;;
47617;SDS011;33336;36.728;-4.414;2023-09-19T21:29:33;13.75;;;4.22;;
47617;SDS011;33336;36.728;-4.414;2023-09-19T21:34:37;12.35;;;3.15;;
47617;SDS011;33336;36.728;-4.414;2023-09-19T21:39:44;6.47;;;2.75;;
47617;SDS011;33336;36.728;-4.414;2023-09-19T21:44:48;10.93;;;4.85;;
47617;SDS011;33336;36.728;-4.414;2023-09-19T21:49:52;13.30;;;6.60;;
47617;SDS011;33336;36.728;-4.414;2023-09-19T21:54:57;14.55;;;8.35;;
47617;SDS011;33336;36.728;-4.414;2023-09-19T22:00:00;12.25;;;6.32;;
47617;SDS011;33336;36.728;-4.414;2023-09-19T22:05:04;11.55;;;6.25;;
47617;SDS011;33336;36.728;-4.414;2023-09-19T22:10:09;14.48;;;7.40;;
47617;SDS011;33336;36.728;-4.414;2023-09-19T22:15:13;13.38;;;8.27;;
47617;SDS011;33336;36.728;-4.414;2023-09-19T22:20:16;7.57;;;4.35;;
47617;SDS011;33336;36.728;-4.414;2023-09-19T22:25:28;7.47;;;4.97;;
47617;SDS011;33336;36.728;-4.414;2023-09-19T22:30:38;18.20;;;9.85;;
47617;SDS011;33336;36.728;-4.414;2023-09-19T22:35:47;15.35;;;7.68;;
47617;SDS011;33336;36.728;-4.414;2023-09-19T22:40:54;12.90;;;4.55;;
47617;SDS011;33336;36.728;-4.414;2023-09-19T22:46:04;8.65;;;3.30;;
47617;SDS011;33336;36.728;-4.414;2023-09-19T22:51:11;6.78;;;3.17;;
47617;SDS011;33336;36.728;-4.414;2023-09-19T22:56:25;9.20;;;3.10;;
47617;SDS011;33336;36.728;-4.414;2023-09-19T23:01:28;8.45;;;3.30;;
47617;SDS011;33336;36.728;-4.414;2023-09-19T23:06:37;12.32;;;4.95;;
47617;SDS011;33336;36.728;-4.414;2023-09-19T23:11:41;10.45;;;3.53;;
47617;SDS011;33336;36.728;-4.414;2023-09-19T23:16:47;6.93;;;2.60;;
47617;SDS011;33336;36.728;-4.414;2023-09-19T23:21:57;11.05;;;3.15;;
47617;SDS011;33336;36.728;-4.414;2023-09-19T23:27:11;4.85;;;2.40;;
47617;SDS011;33336;36.728;-4.414;2023-09-19T23:32:19;7.78;;;4.47;;
47617;SDS011;33336;36.728;-4.414;2023-09-19T23:37:23;8.93;;;4.38;;
47617;SDS011;33336;36.728;-4.414;2023-09-19T23:42:27;10.23;;;5.85;;
47617;SDS011;33336;36.728;-4.414;2023-09-19T23:47:32;10.38;;;3.30;;
47617;SDS011;33336;36.728;-4.414;2023-09-19T23:52:36;12.00;;;6.32;;
47617;SDS011;33336;36.728;-4.414;2023-09-19T23:57:41;10.43;;;4.43;;
